Anderson Acres, Nevada
Current Conditions -  °F | °C
As of 5:15 PM on Wednesday 22 Oct 2014 (Local Time) from KRTS Reporting Station
Clear Clear  
Wind Chill: 64°   Ceiling: Unl
Heat Index: 64°   Visibility: 10mi
Dew Point: 23°   Wind: 12mph
Humidity: 21%   Direction: 260°W
Pressure: 30.07"   Gusts: NA
Location:  39.7378°N, 119.889°W
Report Text: KRTS 230015Z AUTO 26010KT 10SM CLR 18/M05 A3007 RMK AO2
Loading
Personal Weather Stations






























Interactive Weather Map
Tropical Storm Tracking
New forecast layout! Learn more

10-Day Weather Forecast

Advertisements
Track Severe Weather on mobile